sensor_id;sensor_type;location;lat;lon;timestamp;P1;durP1;ratioP1;P2;durP2;ratioP2
5696;SDS011;2873;50.966;7.210;2023-05-10T00:00:13;6.13;;;5.53;;
5696;SDS011;2873;50.966;7.210;2023-05-10T00:02:39;9.63;;;6.00;;
5696;SDS011;2873;50.966;7.210;2023-05-10T00:05:05;6.17;;;5.63;;
5696;SDS011;2873;50.966;7.210;2023-05-10T00:07:31;6.28;;;5.68;;
5696;SDS011;2873;50.966;7.210;2023-05-10T00:09:56;6.40;;;5.80;;
5696;SDS011;2873;50.966;7.210;2023-05-10T00:12:22;6.80;;;5.75;;
5696;SDS011;2873;50.966;7.210;2023-05-10T00:14:47;7.20;;;6.50;;
5696;SDS011;2873;50.966;7.210;2023-05-10T00:17:13;6.73;;;6.13;;
5696;SDS011;2873;50.966;7.210;2023-05-10T00:19:39;9.30;;;6.55;;
5696;SDS011;2873;50.966;7.210;2023-05-10T00:22:04;7.37;;;6.67;;
5696;SDS011;2873;50.966;7.210;2023-05-10T00:24:30;8.50;;;6.80;;
5696;SDS011;2873;50.966;7.210;2023-05-10T00:26:56;8.73;;;6.90;;
5696;SDS011;2873;50.966;7.210;2023-05-10T00:29:21;6.90;;;6.20;;
5696;SDS011;2873;50.966;7.210;2023-05-10T00:31:47;7.60;;;6.68;;
5696;SDS011;2873;50.966;7.210;2023-05-10T00:34:12;9.20;;;7.43;;
5696;SDS011;2873;50.966;7.210;2023-05-10T00:36:38;8.20;;;7.27;;
5696;SDS011;2873;50.966;7.210;2023-05-10T00:39:03;9.70;;;8.00;;
5696;SDS011;2873;50.966;7.210;2023-05-10T00:41:29;8.90;;;7.60;;
5696;SDS011;2873;50.966;7.210;2023-05-10T00:43:58;10.55;;;7.63;;
5696;SDS011;2873;50.966;7.210;2023-05-10T00:46:23;9.70;;;7.70;;
5696;SDS011;2873;50.966;7.210;2023-05-10T00:48:50;10.23;;;8.30;;
5696;SDS011;2873;50.966;7.210;2023-05-10T00:51:15;10.27;;;8.10;;
5696;SDS011;2873;50.966;7.210;2023-05-10T00:53:41;9.73;;;7.63;;
5696;SDS011;2873;50.966;7.210;2023-05-10T00:56:10;10.75;;;8.75;;
5696;SDS011;2873;50.966;7.210;2023-05-10T00:58:35;9.88;;;7.75;;
5696;SDS011;2873;50.966;7.210;2023-05-10T01:01:01;9.88;;;8.18;;
5696;SDS011;2873;50.966;7.210;2023-05-10T01:03:27;10.93;;;8.07;;
5696;SDS011;2873;50.966;7.210;2023-05-10T01:05:53;10.23;;;8.27;;
5696;SDS011;2873;50.966;7.210;2023-05-10T01:08:19;10.10;;;8.37;;
5696;SDS011;2873;50.966;7.210;2023-05-10T01:10:45;9.00;;;7.80;;
5696;SDS011;2873;50.966;7.210;2023-05-10T01:13:11;10.30;;;8.10;;
5696;SDS011;2873;50.966;7.210;2023-05-10T01:15:37;10.15;;;8.00;;
5696;SDS011;2873;50.966;7.210;2023-05-10T01:18:04;12.17;;;8.30;;
5696;SDS011;2873;50.966;7.210;2023-05-10T01:20:37;12.07;;;8.82;;
5696;SDS011;2873;50.966;7.210;2023-05-10T01:26:06;12.70;;;9.23;;
5696;SDS011;2873;50.966;7.210;2023-05-10T01:34:52;15.82;;;9.80;;
5696;SDS011;2873;50.966;7.210;2023-05-10T01:37:29;14.18;;;10.20;;
5696;SDS011;2873;50.966;7.210;2023-05-10T01:40:13;13.48;;;10.38;;
5696;SDS011;2873;50.966;7.210;2023-05-10T01:42:48;15.65;;;10.45;;
5696;SDS011;2873;50.966;7.210;2023-05-10T01:47:54;15.48;;;10.13;;
5696;SDS011;2873;50.966;7.210;2023-05-10T01:50:35;15.57;;;10.40;;
5696;SDS011;2873;50.966;7.210;2023-05-10T01:53:06;16.23;;;11.23;;
5696;SDS011;2873;50.966;7.210;2023-05-10T01:55:35;17.05;;;9.95;;
5696;SDS011;2873;50.966;7.210;2023-05-10T01:58:07;14.27;;;10.20;;
5696;SDS011;2873;50.966;7.210;2023-05-10T02:00:42;15.80;;;10.48;;
5696;SDS011;2873;50.966;7.210;2023-05-10T02:03:10;16.83;;;10.55;;
5696;SDS011;2873;50.966;7.210;2023-05-10T02:05:36;15.23;;;10.35;;
5696;SDS011;2873;50.966;7.210;2023-05-10T02:08:05;16.80;;;10.75;;
5696;SDS011;2873;50.966;7.210;2023-05-10T02:10:32;17.47;;;10.60;;
5696;SDS011;2873;50.966;7.210;2023-05-10T02:12:59;17.38;;;10.93;;
5696;SDS011;2873;50.966;7.210;2023-05-10T02:15:26;17.30;;;11.23;;
5696;SDS011;2873;50.966;7.210;2023-05-10T02:17:54;13.37;;;9.30;;
5696;SDS011;2873;50.966;7.210;2023-05-10T02:20:21;11.60;;;7.32;;
5696;SDS011;2873;50.966;7.210;2023-05-10T02:22:49;6.47;;;4.82;;
5696;SDS011;2873;50.966;7.210;2023-05-10T02:25:17;6.13;;;4.43;;
5696;SDS011;2873;50.966;7.210;2023-05-10T02:27:46;3.53;;;3.33;;
5696;SDS011;2873;50.966;7.210;2023-05-10T02:30:13;3.80;;;3.50;;
5696;SDS011;2873;50.966;7.210;2023-05-10T02:32:39;4.20;;;3.75;;
5696;SDS011;2873;50.966;7.210;2023-05-10T02:35:06;5.30;;;4.10;;
5696;SDS011;2873;50.966;7.210;2023-05-10T02:37:35;4.63;;;4.22;;
5696;SDS011;2873;50.966;7.210;2023-05-10T02:40:02;7.00;;;6.30;;
5696;SDS011;2873;50.966;7.210;2023-05-10T02:42:30;13.27;;;9.30;;
5696;SDS011;2873;50.966;7.210;2023-05-10T02:45:01;12.70;;;9.00;;
5696;SDS011;2873;50.966;7.210;2023-05-10T02:47:30;9.75;;;8.10;;
5696;SDS011;2873;50.966;7.210;2023-05-10T02:49:56;8.43;;;7.45;;
5696;SDS011;2873;50.966;7.210;2023-05-10T02:52:23;11.10;;;8.10;;
5696;SDS011;2873;50.966;7.210;2023-05-10T02:54:54;11.57;;;8.60;;
5696;SDS011;2873;50.966;7.210;2023-05-10T02:57:26;13.50;;;10.35;;
5696;SDS011;2873;50.966;7.210;2023-05-10T02:59:54;11.70;;;10.40;;
5696;SDS011;2873;50.966;7.210;2023-05-10T03:02:20;10.80;;;9.70;;
5696;SDS011;2873;50.966;7.210;2023-05-10T03:04:45;11.07;;;8.75;;
5696;SDS011;2873;50.966;7.210;2023-05-10T03:07:11;9.77;;;8.30;;
5696;SDS011;2873;50.966;7.210;2023-05-10T03:09:37;8.37;;;7.50;;
5696;SDS011;2873;50.966;7.210;2023-05-10T03:20:12;8.53;;;6.10;;
5696;SDS011;2873;50.966;7.210;2023-05-10T03:23:05;6.97;;;5.75;;
5696;SDS011;2873;50.966;7.210;2023-05-10T03:25:37;6.63;;;5.90;;
5696;SDS011;2873;50.966;7.210;2023-05-10T03:28:04;7.10;;;6.22;;
5696;SDS011;2873;50.966;7.210;2023-05-10T03:30:31;8.57;;;6.10;;
5696;SDS011;2873;50.966;7.210;2023-05-10T03:32:57;9.52;;;6.80;;
5696;SDS011;2873;50.966;7.210;2023-05-10T03:35:28;9.05;;;6.80;;
5696;SDS011;2873;50.966;7.210;2023-05-10T03:37:54;7.63;;;6.00;;
5696;SDS011;2873;50.966;7.210;2023-05-10T03:40:19;10.07;;;7.40;;
5696;SDS011;2873;50.966;7.210;2023-05-10T03:42:45;8.30;;;7.20;;
5696;SDS011;2873;50.966;7.210;2023-05-10T03:45:10;9.80;;;7.97;;
5696;SDS011;2873;50.966;7.210;2023-05-10T03:47:36;11.15;;;8.40;;
5696;SDS011;2873;50.966;7.210;2023-05-10T03:50:01;12.10;;;8.07;;
5696;SDS011;2873;50.966;7.210;2023-05-10T03:52:27;11.13;;;8.30;;
5696;SDS011;2873;50.966;7.210;2023-05-10T03:54:53;13.32;;;9.07;;
5696;SDS011;2873;50.966;7.210;2023-05-10T03:57:18;12.35;;;9.23;;
5696;SDS011;2873;50.966;7.210;2023-05-10T03:59:44;12.67;;;9.23;;
5696;SDS011;2873;50.966;7.210;2023-05-10T04:02:09;16.30;;;10.10;;
5696;SDS011;2873;50.966;7.210;2023-05-10T04:04:35;17.83;;;10.60;;
5696;SDS011;2873;50.966;7.210;2023-05-10T04:07:01;21.73;;;13.97;;
5696;SDS011;2873;50.966;7.210;2023-05-10T04:09:26;21.45;;;14.35;;
5696;SDS011;2873;50.966;7.210;2023-05-10T04:11:52;22.13;;;14.47;;
5696;SDS011;2873;50.966;7.210;2023-05-10T04:14:17;24.37;;;14.97;;
5696;SDS011;2873;50.966;7.210;2023-05-10T04:16:43;22.40;;;15.70;;
5696;SDS011;2873;50.966;7.210;2023-05-10T04:19:08;24.65;;;15.63;;
5696;SDS011;2873;50.966;7.210;2023-05-10T04:21:34;22.40;;;15.07;;
5696;SDS011;2873;50.966;7.210;2023-05-10T04:23:59;23.93;;;14.90;;
5696;SDS011;2873;50.966;7.210;2023-05-10T04:26:25;22.10;;;14.70;;
5696;SDS011;2873;50.966;7.210;2023-05-10T04:28:50;24.17;;;14.77;;
5696;SDS011;2873;50.966;7.210;2023-05-10T04:31:16;18.80;;;13.13;;
5696;SDS011;2873;50.966;7.210;2023-05-10T04:33:42;17.45;;;12.75;;
5696;SDS011;2873;50.966;7.210;2023-05-10T04:36:07;22.07;;;12.80;;
5696;SDS011;2873;50.966;7.210;2023-05-10T04:38:33;17.35;;;11.60;;
5696;SDS011;2873;50.966;7.210;2023-05-10T04:41:09;20.90;;;11.70;;
5696;SDS011;2873;50.966;7.210;2023-05-10T04:43:36;18.50;;;11.40;;
5696;SDS011;2873;50.966;7.210;2023-05-10T04:46:02;21.20;;;13.00;;
5696;SDS011;2873;50.966;7.210;2023-05-10T04:48:29;24.00;;;12.90;;
5696;SDS011;2873;50.966;7.210;2023-05-10T04:50:54;22.50;;;13.02;;
5696;SDS011;2873;50.966;7.210;2023-05-10T04:53:20;17.53;;;12.13;;
5696;SDS011;2873;50.966;7.210;2023-05-10T04:55:46;21.02;;;12.63;;
5696;SDS011;2873;50.966;7.210;2023-05-10T04:58:11;23.33;;;12.80;;
5696;SDS011;2873;50.966;7.210;2023-05-10T05:00:37;21.80;;;12.70;;
5696;SDS011;2873;50.966;7.210;2023-05-10T05:03:02;19.95;;;12.57;;
5696;SDS011;2873;50.966;7.210;2023-05-10T05:05:29;26.35;;;12.80;;
5696;SDS011;2873;50.966;7.210;2023-05-10T05:07:54;16.13;;;10.53;;
5696;SDS011;2873;50.966;7.210;2023-05-10T05:10:20;16.20;;;9.80;;
5696;SDS011;2873;50.966;7.210;2023-05-10T05:12:45;15.48;;;8.85;;
5696;SDS011;2873;50.966;7.210;2023-05-10T05:15:11;12.70;;;8.35;;
5696;SDS011;2873;50.966;7.210;2023-05-10T05:17:36;6.80;;;4.90;;
5696;SDS011;2873;50.966;7.210;2023-05-10T05:20:02;9.07;;;6.43;;
5696;SDS011;2873;50.966;7.210;2023-05-10T05:22:28;8.60;;;6.65;;
5696;SDS011;2873;50.966;7.210;2023-05-10T05:24:54;7.18;;;5.22;;
5696;SDS011;2873;50.966;7.210;2023-05-10T05:27:20;7.78;;;6.10;;
5696;SDS011;2873;50.966;7.210;2023-05-10T05:29:50;20.80;;;12.65;;
5696;SDS011;2873;50.966;7.210;2023-05-10T05:32:16;21.55;;;13.32;;
5696;SDS011;2873;50.966;7.210;2023-05-10T05:34:41;22.63;;;13.10;;
5696;SDS011;2873;50.966;7.210;2023-05-10T05:37:12;21.55;;;13.50;;
5696;SDS011;2873;50.966;7.210;2023-05-10T05:39:38;22.88;;;13.40;;
5696;SDS011;2873;50.966;7.210;2023-05-10T05:42:04;22.48;;;14.18;;
5696;SDS011;2873;50.966;7.210;2023-05-10T05:44:30;25.70;;;15.38;;
5696;SDS011;2873;50.966;7.210;2023-05-10T05:46:55;24.20;;;14.07;;
5696;SDS011;2873;50.966;7.210;2023-05-10T05:49:21;25.92;;;14.93;;
5696;SDS011;2873;50.966;7.210;2023-05-10T05:51:46;24.40;;;14.20;;
5696;SDS011;2873;50.966;7.210;2023-05-10T05:54:14;22.85;;;13.60;;
5696;SDS011;2873;50.966;7.210;2023-05-10T05:56:39;20.07;;;12.73;;
5696;SDS011;2873;50.966;7.210;2023-05-10T05:59:05;31.10;;;13.90;;
5696;SDS011;2873;50.966;7.210;2023-05-10T06:01:31;23.95;;;12.40;;
5696;SDS011;2873;50.966;7.210;2023-05-10T06:03:56;21.50;;;12.20;;
5696;SDS011;2873;50.966;7.210;2023-05-10T06:06:22;20.03;;;12.33;;
5696;SDS011;2873;50.966;7.210;2023-05-10T06:08:47;23.42;;;12.60;;
5696;SDS011;2873;50.966;7.210;2023-05-10T06:11:13;21.33;;;12.18;;
5696;SDS011;2873;50.966;7.210;2023-05-10T06:13:38;24.30;;;12.27;;
5696;SDS011;2873;50.966;7.210;2023-05-10T06:16:04;19.00;;;12.20;;
5696;SDS011;2873;50.966;7.210;2023-05-10T06:18:30;18.58;;;12.30;;
5696;SDS011;2873;50.966;7.210;2023-05-10T06:20:56;26.75;;;13.13;;
5696;SDS011;2873;50.966;7.210;2023-05-10T06:23:22;22.90;;;13.65;;
5696;SDS011;2873;50.966;7.210;2023-05-10T06:25:48;25.90;;;13.30;;
5696;SDS011;2873;50.966;7.210;2023-05-10T06:28:13;22.65;;;12.10;;
5696;SDS011;2873;50.966;7.210;2023-05-10T06:30:39;21.87;;;12.80;;
5696;SDS011;2873;50.966;7.210;2023-05-10T06:33:04;21.13;;;12.43;;
5696;SDS011;2873;50.966;7.210;2023-05-10T06:35:29;20.13;;;12.27;;
5696;SDS011;2873;50.966;7.210;2023-05-10T06:37:57;22.00;;;11.82;;
5696;SDS011;2873;50.966;7.210;2023-05-10T06:40:22;24.60;;;12.30;;
5696;SDS011;2873;50.966;7.210;2023-05-10T06:42:48;22.50;;;11.23;;
5696;SDS011;2873;50.966;7.210;2023-05-10T06:45:14;20.10;;;11.40;;
5696;SDS011;2873;50.966;7.210;2023-05-10T06:47:40;18.80;;;11.70;;
5696;SDS011;2873;50.966;7.210;2023-05-10T06:50:07;22.00;;;11.80;;
5696;SDS011;2873;50.966;7.210;2023-05-10T06:52:33;21.43;;;11.80;;
5696;SDS011;2873;50.966;7.210;2023-05-10T06:54:59;19.25;;;11.18;;
5696;SDS011;2873;50.966;7.210;2023-05-10T06:57:25;22.33;;;11.30;;
5696;SDS011;2873;50.966;7.210;2023-05-10T06:59:51;19.87;;;11.60;;
5696;SDS011;2873;50.966;7.210;2023-05-10T07:02:17;25.05;;;11.65;;
5696;SDS011;2873;50.966;7.210;2023-05-10T07:04:42;20.27;;;11.18;;
5696;SDS011;2873;50.966;7.210;2023-05-10T07:07:08;23.90;;;11.30;;
5696;SDS011;2873;50.966;7.210;2023-05-10T07:09:33;23.33;;;12.13;;
5696;SDS011;2873;50.966;7.210;2023-05-10T07:11:59;20.52;;;11.68;;
5696;SDS011;2873;50.966;7.210;2023-05-10T07:14:26;22.33;;;12.38;;
5696;SDS011;2873;50.966;7.210;2023-05-10T07:16:52;29.30;;;12.40;;
5696;SDS011;2873;50.966;7.210;2023-05-10T07:19:18;23.58;;;12.30;;
5696;SDS011;2873;50.966;7.210;2023-05-10T07:21:44;22.92;;;12.40;;
5696;SDS011;2873;50.966;7.210;2023-05-10T07:24:10;23.77;;;12.50;;
5696;SDS011;2873;50.966;7.210;2023-05-10T07:26:36;23.17;;;12.20;;
5696;SDS011;2873;50.966;7.210;2023-05-10T07:29:01;24.17;;;12.90;;
5696;SDS011;2873;50.966;7.210;2023-05-10T07:31:27;22.52;;;12.50;;
5696;SDS011;2873;50.966;7.210;2023-05-10T07:33:53;20.60;;;12.50;;
5696;SDS011;2873;50.966;7.210;2023-05-10T07:36:18;20.40;;;12.73;;
5696;SDS011;2873;50.966;7.210;2023-05-10T07:38:44;21.53;;;12.33;;
5696;SDS011;2873;50.966;7.210;2023-05-10T07:41:11;19.10;;;11.70;;
5696;SDS011;2873;50.966;7.210;2023-05-10T07:43:37;19.05;;;11.85;;
5696;SDS011;2873;50.966;7.210;2023-05-10T07:46:02;19.73;;;10.57;;
5696;SDS011;2873;50.966;7.210;2023-05-10T07:48:28;19.90;;;10.10;;
5696;SDS011;2873;50.966;7.210;2023-05-10T07:50:53;17.63;;;10.65;;
5696;SDS011;2873;50.966;7.210;2023-05-10T07:53:19;16.40;;;10.30;;
5696;SDS011;2873;50.966;7.210;2023-05-10T07:55:49;20.77;;;11.15;;
5696;SDS011;2873;50.966;7.210;2023-05-10T07:58:15;17.25;;;11.25;;
5696;SDS011;2873;50.966;7.210;2023-05-10T08:00:41;18.90;;;10.93;;
5696;SDS011;2873;50.966;7.210;2023-05-10T08:03:06;21.73;;;10.63;;
5696;SDS011;2873;50.966;7.210;2023-05-10T08:05:32;21.57;;;10.90;;
5696;SDS011;2873;50.966;7.210;2023-05-10T08:07:57;20.07;;;10.50;;
5696;SDS011;2873;50.966;7.210;2023-05-10T08:10:24;18.73;;;10.32;;
5696;SDS011;2873;50.966;7.210;2023-05-10T08:12:50;16.27;;;10.17;;
5696;SDS011;2873;50.966;7.210;2023-05-10T08:15:16;17.20;;;10.20;;
5696;SDS011;2873;50.966;7.210;2023-05-10T08:17:41;22.23;;;11.60;;
5696;SDS011;2873;50.966;7.210;2023-05-10T08:20:08;20.15;;;11.00;;
5696;SDS011;2873;50.966;7.210;2023-05-10T08:22:33;19.20;;;10.77;;
5696;SDS011;2873;50.966;7.210;2023-05-10T08:24:59;17.27;;;10.70;;
5696;SDS011;2873;50.966;7.210;2023-05-10T08:27:25;19.85;;;10.70;;
5696;SDS011;2873;50.966;7.210;2023-05-10T08:29:50;19.67;;;11.53;;
5696;SDS011;2873;50.966;7.210;2023-05-10T08:32:16;20.57;;;11.20;;
5696;SDS011;2873;50.966;7.210;2023-05-10T08:34:42;18.23;;;11.40;;
5696;SDS011;2873;50.966;7.210;2023-05-10T08:37:08;22.15;;;12.85;;
5696;SDS011;2873;50.966;7.210;2023-05-10T08:39:34;17.70;;;11.67;;
5696;SDS011;2873;50.966;7.210;2023-05-10T08:42:01;20.90;;;10.40;;
5696;SDS011;2873;50.966;7.210;2023-05-10T08:44:29;18.33;;;10.15;;
5696;SDS011;2873;50.966;7.210;2023-05-10T08:46:57;15.85;;;10.35;;
5696;SDS011;2873;50.966;7.210;2023-05-10T08:49:27;12.55;;;8.80;;
5696;SDS011;2873;50.966;7.210;2023-05-10T08:51:55;12.32;;;7.90;;
5696;SDS011;2873;50.966;7.210;2023-05-10T08:54:24;16.30;;;9.30;;
5696;SDS011;2873;50.966;7.210;2023-05-10T08:56:50;14.70;;;9.10;;
5696;SDS011;2873;50.966;7.210;2023-05-10T08:59:16;15.03;;;9.43;;
5696;SDS011;2873;50.966;7.210;2023-05-10T09:01:42;13.40;;;8.50;;
5696;SDS011;2873;50.966;7.210;2023-05-10T09:04:09;10.52;;;7.25;;
5696;SDS011;2873;50.966;7.210;2023-05-10T09:06:35;9.60;;;6.60;;
5696;SDS011;2873;50.966;7.210;2023-05-10T09:09:01;8.35;;;6.82;;
5696;SDS011;2873;50.966;7.210;2023-05-10T09:11:28;11.52;;;7.78;;
5696;SDS011;2873;50.966;7.210;2023-05-10T09:13:54;8.52;;;7.38;;
5696;SDS011;2873;50.966;7.210;2023-05-10T09:16:21;9.45;;;6.70;;
5696;SDS011;2873;50.966;7.210;2023-05-10T09:18:47;8.45;;;6.80;;
5696;SDS011;2873;50.966;7.210;2023-05-10T09:21:14;10.73;;;7.00;;
5696;SDS011;2873;50.966;7.210;2023-05-10T09:23:42;8.40;;;6.17;;
5696;SDS011;2873;50.966;7.210;2023-05-10T09:26:08;7.45;;;6.05;;
5696;SDS011;2873;50.966;7.210;2023-05-10T09:28:34;8.40;;;5.90;;
5696;SDS011;2873;50.966;7.210;2023-05-10T09:31:21;8.88;;;6.80;;
5696;SDS011;2873;50.966;7.210;2023-05-10T09:33:48;8.70;;;6.40;;
5696;SDS011;2873;50.966;7.210;2023-05-10T09:36:14;9.45;;;7.55;;
5696;SDS011;2873;50.966;7.210;2023-05-10T09:38:47;12.70;;;8.53;;
5696;SDS011;2873;50.966;7.210;2023-05-10T09:41:17;10.48;;;7.65;;
5696;SDS011;2873;50.966;7.210;2023-05-10T09:43:45;11.15;;;7.97;;
5696;SDS011;2873;50.966;7.210;2023-05-10T09:46:10;12.70;;;8.27;;
5696;SDS011;2873;50.966;7.210;2023-05-10T09:48:45;12.75;;;8.70;;
5696;SDS011;2873;50.966;7.210;2023-05-10T09:51:19;15.55;;;8.93;;
5696;SDS011;2873;50.966;7.210;2023-05-10T09:53:48;13.70;;;9.20;;
5696;SDS011;2873;50.966;7.210;2023-05-10T09:56:33;13.93;;;9.52;;
5696;SDS011;2873;50.966;7.210;2023-05-10T09:59:03;15.10;;;10.45;;
5696;SDS011;2873;50.966;7.210;2023-05-10T10:01:30;16.15;;;9.02;;
5696;SDS011;2873;50.966;7.210;2023-05-10T10:03:56;14.30;;;10.17;;
5696;SDS011;2873;50.966;7.210;2023-05-10T10:06:24;18.23;;;11.05;;
5696;SDS011;2873;50.966;7.210;2023-05-10T10:08:51;19.30;;;10.38;;
5696;SDS011;2873;50.966;7.210;2023-05-10T10:11:17;22.17;;;11.60;;
5696;SDS011;2873;50.966;7.210;2023-05-10T10:13:43;22.30;;;12.98;;
5696;SDS011;2873;50.966;7.210;2023-05-10T10:16:09;22.33;;;12.97;;
5696;SDS011;2873;50.966;7.210;2023-05-10T10:18:35;21.58;;;12.93;;
5696;SDS011;2873;50.966;7.210;2023-05-10T10:21:04;24.45;;;13.45;;
5696;SDS011;2873;50.966;7.210;2023-05-10T10:23:31;23.05;;;13.40;;
5696;SDS011;2873;50.966;7.210;2023-05-10T10:25:57;26.10;;;14.37;;
5696;SDS011;2873;50.966;7.210;2023-05-10T10:28:29;28.30;;;14.00;;
5696;SDS011;2873;50.966;7.210;2023-05-10T10:31:02;26.52;;;14.32;;
5696;SDS011;2873;50.966;7.210;2023-05-10T10:33:59;28.85;;;15.38;;
5696;SDS011;2873;50.966;7.210;2023-05-10T10:36:28;27.70;;;14.73;;
5696;SDS011;2873;50.966;7.210;2023-05-10T10:38:56;27.23;;;14.05;;
5696;SDS011;2873;50.966;7.210;2023-05-10T10:49:52;26.08;;;14.68;;
5696;SDS011;2873;50.966;7.210;2023-05-10T10:52:34;22.73;;;12.88;;
5696;SDS011;2873;50.966;7.210;2023-05-10T10:57:28;26.73;;;14.70;;
5696;SDS011;2873;50.966;7.210;2023-05-10T11:00:17;25.70;;;14.07;;
5696;SDS011;2873;50.966;7.210;2023-05-10T11:02:46;28.83;;;15.60;;
5696;SDS011;2873;50.966;7.210;2023-05-10T11:07:59;24.77;;;15.35;;
5696;SDS011;2873;50.966;7.210;2023-05-10T11:10:31;26.05;;;14.45;;
5696;SDS011;2873;50.966;7.210;2023-05-10T11:20:49;18.40;;;13.23;;
5696;SDS011;2873;50.966;7.210;2023-05-10T11:23:31;22.50;;;12.50;;
5696;SDS011;2873;50.966;7.210;2023-05-10T11:25:58;16.08;;;11.82;;
5696;SDS011;2873;50.966;7.210;2023-05-10T11:28:26;21.50;;;12.77;;
5696;SDS011;2873;50.966;7.210;2023-05-10T11:30:52;17.08;;;10.70;;
5696;SDS011;2873;50.966;7.210;2023-05-10T11:33:18;16.15;;;11.15;;
5696;SDS011;2873;50.966;7.210;2023-05-10T11:35:45;16.88;;;11.43;;
5696;SDS011;2873;50.966;7.210;2023-05-10T11:38:11;13.43;;;9.73;;
5696;SDS011;2873;50.966;7.210;2023-05-10T11:40:38;14.85;;;10.45;;
5696;SDS011;2873;50.966;7.210;2023-05-10T11:43:04;13.53;;;9.33;;
5696;SDS011;2873;50.966;7.210;2023-05-10T11:45:33;14.63;;;8.77;;
5696;SDS011;2873;50.966;7.210;2023-05-10T11:47:59;13.63;;;9.98;;
5696;SDS011;2873;50.966;7.210;2023-05-10T11:50:25;12.95;;;8.90;;
5696;SDS011;2873;50.966;7.210;2023-05-10T11:52:55;13.35;;;8.38;;
5696;SDS011;2873;50.966;7.210;2023-05-10T11:55:22;12.13;;;8.70;;
5696;SDS011;2873;50.966;7.210;2023-05-10T11:57:51;14.20;;;9.10;;
5696;SDS011;2873;50.966;7.210;2023-05-10T12:00:18;14.80;;;9.48;;
5696;SDS011;2873;50.966;7.210;2023-05-10T12:02:43;13.70;;;8.67;;
5696;SDS011;2873;50.966;7.210;2023-05-10T12:05:09;13.07;;;8.50;;
5696;SDS011;2873;50.966;7.210;2023-05-10T12:07:35;14.25;;;9.00;;
5696;SDS011;2873;50.966;7.210;2023-05-10T12:12:42;14.48;;;8.50;;
5696;SDS011;2873;50.966;7.210;2023-05-10T12:15:20;12.10;;;8.50;;
5696;SDS011;2873;50.966;7.210;2023-05-10T12:17:46;11.73;;;8.13;;
5696;SDS011;2873;50.966;7.210;2023-05-10T12:20:13;10.23;;;8.30;;
5696;SDS011;2873;50.966;7.210;2023-05-10T12:22:40;11.45;;;7.80;;
5696;SDS011;2873;50.966;7.210;2023-05-10T12:25:08;10.15;;;8.13;;
5696;SDS011;2873;50.966;7.210;2023-05-10T12:27:35;10.57;;;7.78;;
5696;SDS011;2873;50.966;7.210;2023-05-10T12:30:01;9.97;;;7.97;;
5696;SDS011;2873;50.966;7.210;2023-05-10T12:32:39;8.87;;;7.60;;
5696;SDS011;2873;50.966;7.210;2023-05-10T12:35:06;10.00;;;7.57;;
5696;SDS011;2873;50.966;7.210;2023-05-10T12:37:33;12.02;;;7.95;;
5696;SDS011;2873;50.966;7.210;2023-05-10T12:40:01;12.48;;;7.80;;
5696;SDS011;2873;50.966;7.210;2023-05-10T12:42:27;9.43;;;8.00;;
5696;SDS011;2873;50.966;7.210;2023-05-10T12:44:56;9.45;;;7.38;;
5696;SDS011;2873;50.966;7.210;2023-05-10T12:47:22;8.88;;;6.30;;
5696;SDS011;2873;50.966;7.210;2023-05-10T12:49:48;9.20;;;6.53;;
5696;SDS011;2873;50.966;7.210;2023-05-10T12:52:13;9.00;;;6.50;;
5696;SDS011;2873;50.966;7.210;2023-05-10T12:54:39;10.40;;;6.63;;
5696;SDS011;2873;50.966;7.210;2023-05-10T12:57:04;5.93;;;5.33;;
5696;SDS011;2873;50.966;7.210;2023-05-10T12:59:30;6.22;;;4.43;;
5696;SDS011;2873;50.966;7.210;2023-05-10T13:01:56;5.87;;;4.40;;
5696;SDS011;2873;50.966;7.210;2023-05-10T13:04:22;3.70;;;3.40;;
5696;SDS011;2873;50.966;7.210;2023-05-10T13:06:48;5.20;;;4.27;;
5696;SDS011;2873;50.966;7.210;2023-05-10T13:09:14;4.33;;;3.97;;
5696;SDS011;2873;50.966;7.210;2023-05-10T13:11:40;5.03;;;4.10;;
5696;SDS011;2873;50.966;7.210;2023-05-10T13:14:05;4.00;;;3.70;;
5696;SDS011;2873;50.966;7.210;2023-05-10T13:16:31;4.10;;;3.70;;
5696;SDS011;2873;50.966;7.210;2023-05-10T13:18:57;3.00;;;2.80;;
5696;SDS011;2873;50.966;7.210;2023-05-10T13:21:23;3.50;;;3.20;;
5696;SDS011;2873;50.966;7.210;2023-05-10T13:23:49;3.60;;;3.30;;
5696;SDS011;2873;50.966;7.210;2023-05-10T13:26:15;3.58;;;2.90;;
5696;SDS011;2873;50.966;7.210;2023-05-10T13:28:41;3.55;;;3.35;;
5696;SDS011;2873;50.966;7.210;2023-05-10T13:31:09;4.30;;;4.00;;
5696;SDS011;2873;50.966;7.210;2023-05-10T13:33:35;4.20;;;3.83;;
5696;SDS011;2873;50.966;7.210;2023-05-10T13:36:00;5.30;;;4.30;;
5696;SDS011;2873;50.966;7.210;2023-05-10T13:38:26;6.40;;;4.18;;
5696;SDS011;2873;50.966;7.210;2023-05-10T13:40:51;4.82;;;4.30;;
5696;SDS011;2873;50.966;7.210;2023-05-10T13:43:18;3.53;;;3.23;;
5696;SDS011;2873;50.966;7.210;2023-05-10T13:45:44;4.97;;;3.40;;
5696;SDS011;2873;50.966;7.210;2023-05-10T13:48:09;3.10;;;2.90;;
5696;SDS011;2873;50.966;7.210;2023-05-10T13:50:35;5.63;;;2.80;;
5696;SDS011;2873;50.966;7.210;2023-05-10T13:53:00;2.93;;;2.53;;
5696;SDS011;2873;50.966;7.210;2023-05-10T13:55:26;4.20;;;3.30;;
5696;SDS011;2873;50.966;7.210;2023-05-10T13:57:52;4.20;;;2.42;;
5696;SDS011;2873;50.966;7.210;2023-05-10T14:00:17;2.60;;;2.40;;
5696;SDS011;2873;50.966;7.210;2023-05-10T14:02:43;2.60;;;2.40;;
5696;SDS011;2873;50.966;7.210;2023-05-10T14:05:08;2.63;;;2.42;;
5696;SDS011;2873;50.966;7.210;2023-05-10T14:07:34;2.60;;;2.40;;
5696;SDS011;2873;50.966;7.210;2023-05-10T14:10:00;2.37;;;2.23;;
5696;SDS011;2873;50.966;7.210;2023-05-10T14:12:25;2.13;;;1.92;;
5696;SDS011;2873;50.966;7.210;2023-05-10T14:14:51;2.50;;;2.40;;
5696;SDS011;2873;50.966;7.210;2023-05-10T14:17:17;2.20;;;2.10;;
5696;SDS011;2873;50.966;7.210;2023-05-10T14:19:42;2.60;;;2.40;;
5696;SDS011;2873;50.966;7.210;2023-05-10T14:22:08;2.50;;;2.10;;
5696;SDS011;2873;50.966;7.210;2023-05-10T14:24:34;2.27;;;2.17;;
5696;SDS011;2873;50.966;7.210;2023-05-10T14:26:59;2.47;;;2.27;;
5696;SDS011;2873;50.966;7.210;2023-05-10T14:29:25;2.20;;;2.00;;
5696;SDS011;2873;50.966;7.210;2023-05-10T14:31:51;1.97;;;1.87;;
5696;SDS011;2873;50.966;7.210;2023-05-10T14:34:16;2.00;;;1.90;;
5696;SDS011;2873;50.966;7.210;2023-05-10T14:36:42;1.60;;;1.50;;
5696;SDS011;2873;50.966;7.210;2023-05-10T14:39:07;1.50;;;1.40;;
5696;SDS011;2873;50.966;7.210;2023-05-10T14:41:35;2.35;;;2.25;;
5696;SDS011;2873;50.966;7.210;2023-05-10T14:44:00;4.22;;;3.83;;
5696;SDS011;2873;50.966;7.210;2023-05-10T14:46:28;8.82;;;4.57;;
5696;SDS011;2873;50.966;7.210;2023-05-10T14:48:54;7.15;;;5.45;;
5696;SDS011;2873;50.966;7.210;2023-05-10T14:51:20;7.13;;;5.13;;
5696;SDS011;2873;50.966;7.210;2023-05-10T14:53:47;7.95;;;4.70;;
5696;SDS011;2873;50.966;7.210;2023-05-10T14:56:13;5.30;;;4.80;;
5696;SDS011;2873;50.966;7.210;2023-05-10T14:58:38;8.30;;;5.00;;
5696;SDS011;2873;50.966;7.210;2023-05-10T15:01:04;7.40;;;5.40;;
5696;SDS011;2873;50.966;7.210;2023-05-10T15:03:30;6.10;;;4.88;;
5696;SDS011;2873;50.966;7.210;2023-05-10T15:05:56;6.60;;;4.53;;
5696;SDS011;2873;50.966;7.210;2023-05-10T15:08:22;7.05;;;4.53;;
5696;SDS011;2873;50.966;7.210;2023-05-10T15:10:49;8.57;;;5.47;;
5696;SDS011;2873;50.966;7.210;2023-05-10T15:13:15;7.67;;;5.73;;
5696;SDS011;2873;50.966;7.210;2023-05-10T15:15:40;5.90;;;5.20;;
5696;SDS011;2873;50.966;7.210;2023-05-10T15:18:06;8.93;;;5.95;;
5696;SDS011;2873;50.966;7.210;2023-05-10T15:20:31;7.83;;;5.80;;
5696;SDS011;2873;50.966;7.210;2023-05-10T15:22:57;6.60;;;5.20;;
5696;SDS011;2873;50.966;7.210;2023-05-10T15:25:24;6.60;;;5.20;;
5696;SDS011;2873;50.966;7.210;2023-05-10T15:27:55;8.37;;;5.90;;
5696;SDS011;2873;50.966;7.210;2023-05-10T15:30:20;7.70;;;5.40;;
5696;SDS011;2873;50.966;7.210;2023-05-10T15:32:46;6.45;;;5.38;;
5696;SDS011;2873;50.966;7.210;2023-05-10T15:35:11;9.97;;;6.30;;
5696;SDS011;2873;50.966;7.210;2023-05-10T15:37:38;7.82;;;5.95;;
5696;SDS011;2873;50.966;7.210;2023-05-10T15:40:04;11.05;;;5.50;;
5696;SDS011;2873;50.966;7.210;2023-05-10T15:42:30;7.13;;;6.03;;